Terminal Aerodrome Forecast
Issued by NWS Twin Cities, MN

Home | Current Version | Previous Version | Text Only | Print | Product List | Glossary On
Versions: 1 2 3 4 5 6 7 8 9 10 11 12 13 14 15 16 17 18 19 20 21 22 23 24 25 26 27 28 29 30 31 32
000
FTUS43 KMPX 010542
TAFMSP
TAF
KMSP 010542Z 0106/0212 05012G20KT P6SM OVC030
     FM010900 03018G24KT 4SM -SN OVC020
      TEMPO 0111/0114 1 1/2SM -SN OVC014
     FM011600 02016G22KT P6SM BKN025 OVC080
     FM011800 01013KT P6SM SCT020=

USA.gov is the U.S. government's official web portal to all federal, state and local government web resources and services.